Time;durP1;ratioP1;P1;durP2;ratioP2;P2;SDS_P1;SDS_P2;PMS_P1;PMS_P2;Temp;Humidity;BMP_temperature;BMP_pressure;BME280_temperature;BME280_humidity;BME280_pressure;Samples;Min_cycle;Max_cycle;Signal;HPM_P1;HPM_P2
2022/08/26 00:01:58;;;;;;;17.92;15.77;;;22.10;93.00;;;;;;5069934;28;20401;-47
2022/08/26 00:04:24;;;;;;;;;;;22.10;92.80;;;;;;5054508;28;20037;-46
2022/08/26 00:06:50;;;;;;;25.00;16.48;;;22.10;92.90;;;;;;5050268;28;19983;-45
2022/08/26 00:09:16;;;;;;;18.65;16.75;;;22.10;92.70;;;;;;5050020;28;20045;-45
2022/08/26 00:11:45;;;;;;;;;;;22.10;92.70;;;;;;5050187;28;20410;-47
2022/08/26 00:14:12;;;;;;;22.52;19.65;;;22.10;93.00;;;;;;5049595;28;19921;-46
2022/08/26 00:16:38;;;;;;;23.23;19.90;;;22.10;92.80;;;;;;5049924;28;20730;-46
2022/08/26 00:19:03;;;;;;;;;;;22.10;92.80;;;;;;5050732;28;20068;-45
2022/08/26 00:21:29;;;;;;;23.77;21.35;;;22.10;93.00;;;;;;5050535;28;19960;-48
2022/08/26 00:23:54;;;;;;;;;;;22.00;92.90;;;;;;5050444;28;20072;-46
2022/08/26 00:26:20;;;;;;;30.40;27.02;;;22.00;93.20;;;;;;5050158;28;19920;-46
2022/08/26 00:28:46;;;;;;;30.63;25.50;;;21.90;92.90;;;;;;5049665;28;20064;-45
2022/08/26 00:31:11;;;;;;;30.70;27.40;;;21.90;92.90;;;;;;5049896;28;20036;-48
2022/08/26 00:33:37;;;;;;;;;;;21.90;93.20;;;;;;5050296;28;20037;-46
2022/08/26 00:36:03;;;;;;;30.77;27.58;;;21.80;93.10;;;;;;5049937;28;20332;-45
2022/08/26 00:38:29;;;;;;;32.25;27.98;;;21.80;93.00;;;;;;5050021;28;20470;-46
2022/08/26 00:40:55;;;;;;;;;;;21.70;93.10;;;;;;5065808;28;20068;-46
2022/08/26 00:43:22;;;;;;;36.10;32.33;;;21.70;93.40;;;;;;5069372;28;19916;-46
2022/08/26 00:45:55;;;;;;;37.03;33.30;;;21.60;93.30;;;;;;5069522;28;20048;-46
2022/08/26 00:48:24;;;;;;;36.63;33.00;;;21.60;93.50;;;;;;5069974;28;20044;-46
2022/08/26 00:50:55;;;;;;;38.38;34.33;;;21.60;93.60;;;;;;5069556;28;20076;-46
2022/08/26 00:53:24;;;;;;;39.63;34.58;;;21.50;93.70;;;;;;5069537;28;20060;-47
2022/08/26 00:56:00;;;;;;;38.92;35.08;;;21.50;93.70;;;;;;5069380;28;20081;-46
2022/08/26 00:58:28;;;;;;;38.87;35.03;;;21.40;93.90;;;;;;5069904;28;20041;-45
2022/08/26 01:00:54;;;;;;;39.55;35.50;;;21.30;94.00;;;;;;5069432;28;20490;-46
2022/08/26 01:03:21;;;;;;;;;;;21.30;94.00;;;;;;5069913;28;20051;-46
2022/08/26 01:05:47;;;;;;;42.72;37.58;;;21.20;94.30;;;;;;5069439;28;19917;-47
2022/08/26 01:08:13;;;;;;;;;;;21.20;94.10;;;;;;5070042;28;20329;-46
2022/08/26 01:10:39;;;;;;;44.65;40.05;;;21.10;94.70;;;;;;5069092;28;19928;-46
2022/08/26 01:13:08;;;;;;;;;;;21.10;94.60;;;;;;5069873;28;20053;-47
2022/08/26 01:15:40;;;;;;;48.72;44.03;;;21.00;95.00;;;;;;5069490;28;20274;-46
2022/08/26 01:18:07;;;;;;;53.40;45.17;;;21.00;95.10;;;;;;5069542;28;20067;-46
2022/08/26 01:20:56;;;;;;;50.33;45.42;;;20.90;95.40;;;;;;5069278;28;20036;-46
2022/08/26 01:23:25;;;;;;;49.28;44.17;;;21.00;95.90;;;;;;5069844;28;20055;-46
2022/08/26 01:25:58;;;;;;;56.92;49.28;;;20.90;95.90;;;;;;5072994;28;20052;-46
2022/08/26 01:28:27;;;;;;;50.83;45.70;;;20.90;96.10;;;;;;5073257;28;20500;-46
2022/08/26 01:30:54;;;;;;;51.33;46.33;;;20.90;96.30;;;;;;5071838;28;20142;-46
2022/08/26 01:33:25;;;;;;;55.30;49.42;;;20.90;96.50;;;;;;5072520;28;20401;-46
2022/08/26 01:35:50;;;;;;;50.72;45.42;;;20.90;96.90;;;;;;5073076;28;20063;-46
2022/08/26 01:38:17;;;;;;;;;;;20.90;97.20;;;;;;5073216;28;20036;-46
2022/08/26 01:40:44;;;;;;;55.45;49.85;;;20.90;98.00;;;;;;5058866;28;19917;-46
2022/08/26 01:43:16;;;;;;;53.60;45.17;;;20.90;97.70;;;;;;5052219;28;20102;-46
2022/08/26 01:45:42;;;;;;;50.15;45.13;;;20.90;97.90;;;;;;5052787;28;20529;-46
2022/08/26 01:48:14;;;;;;;53.75;48.47;;;20.80;98.10;;;;;;5051992;28;20032;-46
2022/08/26 01:50:41;;;;;;;51.90;46.35;;;20.80;98.60;;;;;;5067227;28;20452;-47
2022/08/26 01:53:10;;;;;;;51.70;46.10;;;20.80;98.70;;;;;;5072068;28;20083;-46
2022/08/26 01:55:38;;;;;;;50.78;45.58;;;20.80;99.00;;;;;;5072188;28;20032;-45
2022/08/26 01:58:08;;;;;;;56.28;50.25;;;20.80;99.30;;;;;;5072132;28;20324;-46
2022/08/26 02:00:34;;;;;;;55.25;49.40;;;20.70;99.60;;;;;;5072589;28;20096;-47
2022/08/26 02:03:16;;;;;;;55.80;49.97;;;20.80;99.90;;;;;;5069773;28;20043;-46
2022/08/26 02:06:05;;;;;;;59.53;51.42;;;20.70;99.90;;;;;;5052792;28;20045;-46
2022/08/26 02:08:37;;;;;;;54.10;47.85;;;20.80;99.90;;;;;;5066549;28;20040;-45
2022/08/26 02:11:04;;;;;;;55.15;49.33;;;20.80;99.90;;;;;;5072013;28;20068;-46
2022/08/26 02:13:32;;;;;;;61.63;51.20;;;20.80;99.90;;;;;;5072001;28;20098;-46
2022/08/26 02:16:00;;;;;;;56.58;49.70;;;20.80;99.90;;;;;;5072294;28;20045;-46
2022/08/26 02:18:28;;;;;;;55.83;49.25;;;20.80;99.90;;;;;;5072155;28;20072;-46
2022/08/26 02:20:55;;;;;;;58.75;48.83;;;20.80;99.90;;;;;;5056347;28;20068;-46
2022/08/26 02:23:21;;;;;;;58.45;51.85;;;20.80;99.90;;;;;;5051495;28;20418;-47
2022/08/26 02:25:50;;;;;;;;;;;20.90;99.90;;;;;;5052104;28;20045;-47
2022/08/26 02:28:16;;;;;;;57.65;47.08;;;20.90;99.90;;;;;;5052029;28;20003;-46
2022/08/26 02:30:44;;;;;;;57.75;47.90;;;20.90;99.90;;;;;;5051874;28;20048;-46
2022/08/26 02:33:09;;;;;;;64.80;47.17;;;20.90;99.90;;;;;;5051621;28;20652;-46
2022/08/26 02:35:36;;;;;;;;;;;20.90;99.90;;;;;;5051242;28;20047;-47
2022/08/26 02:38:04;;;;;;;53.50;41.38;;;20.90;99.90;;;;;;5051310;28;19943;-46
2022/08/26 02:40:34;;;;;;;48.00;42.83;;;21.00;99.90;;;;;;5051516;28;20591;-46
2022/08/26 02:42:59;;;;;;;52.25;42.22;;;21.00;99.90;;;;;;5051540;28;20048;-46
2022/08/26 02:45:26;;;;;;;;;;;21.00;99.90;;;;;;5051517;28;20040;-46
2022/08/26 02:47:52;;;;;;;44.80;37.90;;;20.90;99.90;;;;;;5050919;28;20279;-46
2022/08/26 02:50:18;;;;;;;;;;;20.90;99.90;;;;;;5050426;28;20107;-46
2022/08/26 02:52:43;;;;;;;50.90;41.88;;;21.00;99.90;;;;;;5050843;28;20386;-48
2022/08/26 02:55:09;;;;;;;;;;;21.00;99.90;;;;;;5051780;28;20301;-46
2022/08/26 02:57:34;;;;;;;45.88;37.40;;;21.00;99.90;;;;;;5068658;28;19916;-46
2022/08/26 03:00:00;;;;;;;;;;;21.00;99.90;;;;;;5070896;28;20040;-46
2022/08/26 03:02:27;;;;;;;46.22;37.13;;;21.00;99.90;;;;;;5071148;28;20294;-47
2022/08/26 03:04:52;;;;;;;42.47;37.67;;;21.00;99.90;;;;;;5070554;28;20068;-47
2022/08/26 03:07:19;;;;;;;;;;;21.00;99.90;;;;;;5070716;28;20091;-47
2022/08/26 03:09:45;;;;;;;48.95;36.60;;;21.00;99.90;;;;;;5069911;28;20285;-46
2022/08/26 03:12:10;;;;;;;;;;;21.00;99.90;;;;;;5071396;28;20045;-46
2022/08/26 03:14:36;;;;;;;48.65;36.90;;;21.00;99.90;;;;;;5053607;28;19917;-46
2022/08/26 03:17:02;;;;;;;44.05;36.38;;;21.00;99.90;;;;;;5051086;28;20660;-46
2022/08/26 03:19:29;;;;;;;;;;;21.00;99.90;;;;;;5051303;28;20116;-46
2022/08/26 03:21:55;;;;;;;44.58;37.10;;;21.00;99.90;;;;;;5050525;28;19939;-46
2022/08/26 03:24:20;;;;;;;;;;;21.00;99.90;;;;;;5051096;28;20067;-46
2022/08/26 03:26:46;;;;;;;44.08;35.92;;;21.00;99.90;;;;;;5067989;28;19971;-47
2022/08/26 03:31:56;;;;;;;43.65;36.45;;;20.90;99.90;;;;;;5070529;28;20323;-46
2022/08/26 03:34:21;;;;;;;;;;;20.90;99.90;;;;;;5070493;28;20112;-47
2022/08/26 03:36:47;;;;;;;51.00;38.67;;;20.90;99.90;;;;;;5070582;28;20328;-47
2022/08/26 03:39:12;;;;;;;;;;;20.90;99.90;;;;;;5071188;28;20044;-47
2022/08/26 03:41:39;;;;;;;49.20;34.67;;;20.80;99.90;;;;;;5070595;28;19946;-46
2022/08/26 03:44:07;;;;;;;42.28;36.17;;;20.80;99.90;;;;;;5070316;28;20522;-45
2022/08/26 03:46:33;;;;;;;45.83;37.17;;;20.80;99.90;;;;;;5070391;28;20051;-45
2022/08/26 03:49:00;;;;;;;49.85;37.40;;;20.80;99.90;;;;;;5070272;28;20037;-50
2022/08/26 03:51:27;;;;;;;43.85;36.13;;;20.80;99.90;;;;;;5070938;28;20114;-46
2022/08/26 03:53:52;;;;;;;47.58;35.08;;;20.80;99.90;;;;;;5070348;28;20041;-46
2022/08/26 03:56:18;;;;;;;;;;;20.80;99.90;;;;;;5071156;28;20036;-46
2022/08/26 03:58:43;;;;;;;42.58;35.35;;;20.90;99.90;;;;;;5070282;28;20002;-46
2022/08/26 04:01:10;;;;;;;;;;;20.90;99.90;;;;;;5070988;28;20037;-46
2022/08/26 04:06:19;;;;;;;39.97;33.88;;;20.90;99.90;;;;;;5050286;28;20076;-47
2022/08/26 04:08:45;;;;;;;;;;;20.80;99.90;;;;;;5060216;28;20063;-47
2022/08/26 04:11:17;;;;;;;45.65;34.63;;;20.90;99.90;;;;;;5070261;28;19917;-46
2022/08/26 04:13:43;;;;;;;47.13;33.42;;;20.90;99.90;;;;;;5069120;28;20034;-46
2022/08/26 04:16:08;;;;;;;;;;;20.90;99.90;;;;;;5069923;28;20035;-47
2022/08/26 04:18:36;;;;;;;42.55;31.85;;;20.90;99.90;;;;;;5069686;28;20183;-46
2022/08/26 04:21:03;;;;;;;43.67;34.70;;;20.80;99.90;;;;;;5070004;28;20037;-46
2022/08/26 04:23:29;;;;;;;42.75;35.03;;;20.90;99.90;;;;;;5068205;28;20517;-46
2022/08/26 04:25:54;;;;;;;;;;;20.90;99.90;;;;;;5056134;28;20040;-46
2022/08/26 04:28:21;;;;;;;37.15;31.20;;;20.90;99.90;;;;;;5049867;28;20438;-46
2022/08/26 04:30:48;;;;;;;45.70;33.20;;;20.90;99.90;;;;;;5049570;28;20490;-46
2022/08/26 04:33:14;;;;;;;40.53;31.60;;;20.90;99.90;;;;;;5049662;28;20040;-47
2022/08/26 04:35:39;;;;;;;;;;;20.90;99.90;;;;;;5050293;28;20496;-48
2022/08/26 04:38:05;;;;;;;43.17;31.65;;;20.90;99.90;;;;;;5063981;28;20313;-46
2022/08/26 04:40:30;;;;;;;;;;;20.90;99.90;;;;;;5070592;28;20486;-45
2022/08/26 04:42:56;;;;;;;45.20;31.55;;;20.90;99.90;;;;;;5069645;28;19917;-46
2022/08/26 04:45:21;;;;;;;;;;;20.90;99.90;;;;;;5069879;28;20055;-46
2022/08/26 04:47:47;;;;;;;38.47;30.15;;;20.90;99.90;;;;;;5069939;28;19917;-46
2022/08/26 04:50:14;;;;;;;;;;;20.90;99.90;;;;;;5070034;28;20486;-45
2022/08/26 04:52:39;;;;;;;46.33;31.05;;;20.90;99.90;;;;;;5069747;28;19920;-46
2022/08/26 04:55:06;;;;;;;;;;;20.90;99.90;;;;;;5069797;28;20048;-46
2022/08/26 04:57:32;;;;;;;36.58;29.67;;;20.90;99.90;;;;;;5069582;28;19916;-46
2022/08/26 04:59:58;;;;;;;39.17;30.17;;;20.90;99.90;;;;;;5072436;28;20375;-47
2022/08/26 05:02:23;;;;;;;;;;;21.00;99.90;;;;;;5074282;28;20036;-45
2022/08/26 05:04:49;;;;;;;36.08;30.15;;;21.00;99.90;;;;;;5073360;28;19916;-46
2022/08/26 05:07:14;;;;;;;;;;;21.00;99.90;;;;;;5073802;28;20091;-45
2022/08/26 05:09:40;;;;;;;43.33;29.38;;;21.00;99.90;;;;;;5073451;28;19942;-46
2022/08/26 05:12:06;;;;;;;;;;;21.00;99.90;;;;;;5073460;28;20041;-47
2022/08/26 05:14:31;;;;;;;43.58;30.60;;;21.00;99.90;;;;;;5059208;28;19994;-47
2022/08/26 05:16:57;;;;;;;;;;;21.00;99.90;;;;;;5053722;28;20041;-46
2022/08/26 05:19:23;;;;;;;41.10;29.08;;;21.10;99.90;;;;;;5053271;28;20305;-46
2022/08/26 05:21:49;;;;;;;34.97;26.73;;;21.10;99.90;;;;;;5065603;28;20132;-46
2022/08/26 05:24:15;;;;;;;;;;;21.10;99.90;;;;;;5073684;28;20120;-46
2022/08/26 05:26:41;;;;;;;41.75;26.27;;;21.10;99.90;;;;;;5068094;28;19965;-46
2022/08/26 05:29:06;;;;;;;;;;;21.10;99.90;;;;;;5072614;28;20044;-46
2022/08/26 05:31:33;;;;;;;41.70;27.33;;;21.10;99.90;;;;;;5055359;28;19917;-46
2022/08/26 05:34:01;;;;;;;37.13;27.33;;;21.20;99.90;;;;;;5072977;28;20138;-46
2022/08/26 05:36:29;;;;;;;33.60;26.15;;;21.20;99.90;;;;;;5073137;28;20489;-46
2022/08/26 05:38:55;;;;;;;33.58;24.55;;;21.20;99.90;;;;;;5072483;28;20159;-46
2022/08/26 05:41:23;;;;;;;;;;;21.20;99.90;;;;;;5066598;28;20103;-46
2022/08/26 05:43:50;;;;;;;35.28;26.17;;;21.20;99.90;;;;;;5071912;28;20011;-46
2022/08/26 05:46:17;;;;;;;31.10;24.88;;;21.20;99.90;;;;;;5072824;28;20036;-46
2022/08/26 05:48:42;;;;;;;33.95;26.13;;;21.20;99.90;;;;;;5069567;28;20231;-47
2022/08/26 05:51:09;;;;;;;;;;;21.20;99.90;;;;;;5071938;28;20032;-46
2022/08/26 05:53:36;;;;;;;34.20;25.38;;;21.20;99.90;;;;;;5072225;28;19920;-46
2022/08/26 05:56:02;;;;;;;35.70;23.70;;;21.20;99.90;;;;;;5057567;28;20244;-46
2022/08/26 05:58:28;;;;;;;37.88;24.77;;;21.20;99.90;;;;;;5052659;28;20041;-46
2022/08/26 06:01:05;;;;;;;;;;;21.30;99.90;;;;;;5053129;28;20036;-47
2022/08/26 06:03:33;;;;;;;37.23;24.50;;;21.30;99.90;;;;;;5052022;28;19971;-46
2022/08/26 06:06:02;;;;;;;29.33;23.25;;;21.30;99.90;;;;;;5052220;28;20055;-48
2022/08/26 06:08:28;;;;;;;31.92;24.08;;;21.30;99.90;;;;;;5068594;28;20055;-46
2022/08/26 06:10:54;;;;;;;;;;;21.30;99.90;;;;;;5071803;28;20052;-46
2022/08/26 06:13:27;;;;;;;33.28;23.33;;;21.30;99.90;;;;;;5071927;28;19931;-45
2022/08/26 06:15:54;;;;;;;33.50;21.23;;;21.20;99.90;;;;;;5071058;28;20125;-46
2022/08/26 06:18:23;;;;;;;30.73;21.75;;;21.20;99.90;;;;;;5071129;28;20032;-47
2022/08/26 06:20:49;;;;;;;27.77;20.30;;;21.30;99.90;;;;;;5072160;28;20036;-46
2022/08/26 06:26:01;;;;;;;25.90;19.92;;;21.30;99.90;;;;;;5072246;28;20053;-46
2022/08/26 06:28:27;;;;;;;29.35;21.30;;;21.30;99.90;;;;;;5071752;28;20044;-46
2022/08/26 06:30:54;;;;;;;;;;;21.30;99.90;;;;;;5066993;28;20036;-46
2022/08/26 06:33:20;;;;;;;27.65;19.67;;;21.40;99.90;;;;;;5071488;28;19966;-46
2022/08/26 06:35:47;;;;;;;26.90;18.88;;;21.40;99.90;;;;;;5069087;28;20449;-46
2022/08/26 06:38:13;;;;;;;27.05;18.33;;;21.40;99.90;;;;;;5051977;28;20033;-47
2022/08/26 06:40:44;;;;;;;29.83;19.33;;;21.40;99.90;;;;;;5060666;28;20044;-47
2022/08/26 06:43:11;;;;;;;29.85;20.27;;;21.40;99.90;;;;;;5071447;28;20127;-47
2022/08/26 06:45:37;;;;;;;21.67;17.58;;;21.50;99.90;;;;;;5071482;28;20072;-46
2022/08/26 06:48:05;;;;;;;26.17;18.75;;;21.50;99.90;;;;;;5067905;28;20041;-46
2022/08/26 06:50:31;;;;;;;22.90;17.25;;;21.50;99.90;;;;;;5051573;28;20059;-46
2022/08/26 06:52:57;;;;;;;26.77;18.75;;;21.50;99.90;;;;;;5051606;28;20087;-47
2022/08/26 06:55:23;;;;;;;;;;;21.50;99.90;;;;;;5051853;28;20060;-46
2022/08/26 06:57:49;;;;;;;26.77;14.95;;;21.50;99.90;;;;;;5051904;28;19921;-46
2022/08/26 07:00:15;;;;;;;;;;;21.60;99.90;;;;;;5051796;28;20064;-47
2022/08/26 07:02:40;;;;;;;26.00;15.25;;;21.60;99.90;;;;;;5051173;28;20301;-46
2022/08/26 07:05:06;;;;;;;;;;;21.60;99.90;;;;;;5051917;28;20044;-46
2022/08/26 07:07:32;;;;;;;18.23;14.20;;;21.70;99.90;;;;;;5061199;28;20019;-46
2022/08/26 07:09:58;;;;;;;;;;;21.70;99.90;;;;;;5071168;28;20028;-47
2022/08/26 07:12:24;;;;;;;20.63;12.65;;;21.70;99.90;;;;;;5070472;28;19920;-47
2022/08/26 07:14:50;;;;;;;19.00;13.02;;;21.80;99.90;;;;;;5070137;28;20142;-47
2022/08/26 07:17:16;;;;;;;;;;;21.80;99.90;;;;;;5068755;28;20122;-46
2022/08/26 07:19:41;;;;;;;19.98;12.23;;;21.90;99.90;;;;;;5069742;28;20395;-46
2022/08/26 07:22:07;;;;;;;18.23;11.43;;;21.90;99.90;;;;;;5068342;28;20039;-46
2022/08/26 07:24:35;;;;;;;20.45;12.70;;;21.90;99.90;;;;;;5070486;28;20068;-46
2022/08/26 07:27:02;;;;;;;18.50;10.85;;;22.00;99.90;;;;;;5070796;28;20417;-46
2022/08/26 07:29:28;;;;;;;18.73;11.35;;;22.00;99.90;;;;;;5071095;28;20097;-48
2022/08/26 07:31:53;;;;;;;;;;;21.90;99.90;;;;;;5068267;28;20437;-47
2022/08/26 07:34:20;;;;;;;20.00;12.10;;;21.90;99.90;;;;;;5070164;28;19916;-46
2022/08/26 07:36:46;;;;;;;15.80;11.65;;;21.90;99.90;;;;;;5070268;28;20077;-46
2022/08/26 07:39:11;;;;;;;;;;;22.00;99.90;;;;;;5070754;28;20040;-47
2022/08/26 07:41:37;;;;;;;17.95;11.85;;;22.00;99.90;;;;;;5070222;28;19923;-47
2022/08/26 07:44:03;;;;;;;;;;;22.00;99.90;;;;;;5070388;28;20039;-46
2022/08/26 07:46:28;;;;;;;23.88;12.18;;;22.00;99.90;;;;;;5069924;28;20385;-47
2022/08/26 07:48:55;;;;;;;26.02;11.10;;;22.00;99.90;;;;;;5068854;28;20094;-46
2022/08/26 07:51:21;;;;;;;16.23;10.48;;;22.10;99.90;;;;;;5070408;28;20048;-46
2022/08/26 07:53:48;;;;;;;23.27;10.80;;;22.10;99.90;;;;;;5069895;28;20393;-46
2022/08/26 07:56:14;;;;;;;20.90;8.88;;;22.10;99.90;;;;;;5070253;28;20403;-46
2022/08/26 07:58:40;;;;;;;20.48;9.25;;;22.20;99.90;;;;;;5070162;28;20072;-47
2022/08/26 08:01:06;;;;;;;;;;;22.20;99.90;;;;;;5070398;28;20091;-46
2022/08/26 08:03:32;;;;;;;20.85;9.80;;;22.20;99.90;;;;;;5070008;28;19939;-46
2022/08/26 08:05:58;;;;;;;14.05;9.02;;;22.30;99.90;;;;;;5070082;28;20044;-47
2022/08/26 08:08:24;;;;;;;;;;;22.40;99.90;;;;;;5070326;28;20516;-46
2022/08/26 08:10:49;;;;;;;16.27;9.05;;;22.50;99.90;;;;;;5068223;28;19916;-46
2022/08/26 08:13:15;;;;;;;;;;;22.50;99.90;;;;;;5050445;28;20120;-46
2022/08/26 08:15:41;;;;;;;17.10;7.55;;;22.60;99.90;;;;;;5049572;28;20019;-46
2022/08/26 08:18:06;;;;;;;15.65;7.07;;;22.70;99.90;;;;;;5049848;28;20037;-46
2022/08/26 08:20:32;;;;;;;;;;;22.80;99.90;;;;;;5050411;28;20490;-46
2022/08/26 08:22:59;;;;;;;24.92;5.97;;;22.90;99.90;;;;;;5051582;28;20344;-48
2022/08/26 08:25:25;;;;;;;15.10;6.25;;;22.90;99.90;;;;;;5069762;28;20556;-47
2022/08/26 08:27:50;;;;;;;;;;;23.00;99.90;;;;;;5069575;28;20044;-47
2022/08/26 08:30:20;;;;;;;15.23;5.32;;;23.10;99.90;;;;;;5063629;28;19923;-48
2022/08/26 08:32:46;;;;;;;44.15;8.68;;;23.10;99.90;;;;;;5069003;28;20128;-49
2022/08/26 08:35:14;;;;;;;18.17;6.38;;;23.20;99.90;;;;;;5073275;28;20502;-49
2022/08/26 08:37:40;;;;;;;22.58;5.55;;;23.30;99.90;;;;;;5074081;28;20474;-49
2022/08/26 08:40:07;;;;;;;11.48;5.03;;;23.30;99.90;;;;;;5073866;28;20093;-47
2022/08/26 08:43:03;;;;;;;9.50;4.88;;;23.20;99.90;;;;;;5073543;28;20044;-48
2022/08/26 08:45:44;;;;;;;12.85;4.78;;;23.20;99.90;;;;;;5073788;28;20036;-47
2022/08/26 08:48:25;;;;;;;8.75;4.55;;;23.10;99.90;;;;;;5072140;28;20048;-47
2022/08/26 08:51:15;;;;;;;14.82;5.82;;;23.10;99.90;;;;;;5073527;28;20498;-48
2022/08/26 08:53:44;;;;;;;13.07;5.03;;;23.10;99.90;;;;;;5073499;28;20090;-46
2022/08/26 08:56:34;;;;;;;17.63;5.80;;;23.00;99.90;;;;;;5073748;28;20047;-47
2022/08/26 08:59:20;;;;;;;18.17;5.13;;;23.00;99.90;;;;;;5073536;28;20037;-47
2022/08/26 09:02:20;;;;;;;19.58;5.53;;;23.00;99.90;;;;;;5073754;28;20062;-47
2022/08/26 09:05:06;;;;;;;12.20;5.03;;;23.00;99.90;;;;;;5072486;28;20029;-52
2022/08/26 09:07:36;;;;;;;11.43;5.00;;;23.00;99.90;;;;;;5069348;28;20090;-51
2022/08/26 09:10:19;;;;;;;11.13;4.70;;;23.00;99.90;;;;;;5053672;28;20510;-51
2022/08/26 09:12:46;;;;;;;17.88;6.25;;;23.00;99.90;;;;;;5062204;28;20044;-49
2022/08/26 09:15:25;;;;;;;13.38;5.20;;;23.00;99.90;;;;;;5073399;28;20036;-49
2022/08/26 09:18:29;;;;;;;18.23;4.97;;;23.00;99.90;;;;;;5072993;28;20051;-51
2022/08/26 09:20:58;;;;;;;13.00;4.90;;;23.00;99.90;;;;;;5038960;28;20122;-49
2022/08/26 09:23:25;;;;;;;16.48;4.25;;;23.10;99.90;;;;;;5072758;28;20451;-48
2022/08/26 09:25:54;;;;;;;13.05;5.05;;;23.10;99.90;;;;;;5073173;28;20044;-47
2022/08/26 09:28:22;;;;;;;15.77;4.75;;;23.00;99.90;;;;;;5071666;28;20040;-48
2022/08/26 09:31:18;;;;;;;16.10;5.40;;;23.00;99.90;;;;;;5072641;28;20059;-49
2022/08/26 09:33:43;;;;;;;14.30;5.30;;;23.00;99.90;;;;;;5072159;28;20048;-48
2022/08/26 09:36:31;;;;;;;12.48;4.68;;;23.00;99.90;;;;;;5072616;28;20032;-51
2022/08/26 09:38:58;;;;;;;13.00;5.03;;;23.00;99.90;;;;;;5071853;28;20033;-51
2022/08/26 09:41:30;;;;;;;14.93;4.80;;;23.10;99.90;;;;;;5072895;28;20486;-51
2022/08/26 09:44:13;;;;;;;17.58;4.05;;;23.00;99.90;;;;;;5071904;28;20109;-49
2022/08/26 09:46:44;;;;;;;13.63;3.70;;;23.00;99.90;;;;;;5072740;28;20119;-52
2022/08/26 09:49:26;;;;;;;13.60;3.22;;;23.10;99.90;;;;;;5072224;28;20129;-50
2022/08/26 09:52:21;;;;;;;10.88;2.50;;;23.10;99.90;;;;;;5072771;28;20131;-53
2022/08/26 09:55:02;;;;;;;10.10;2.33;;;23.10;99.90;;;;;;5071949;28;20033;-48
2022/08/26 09:57:32;;;;;;;8.07;1.92;;;23.00;99.90;;;;;;5072573;28;20033;-46
2022/08/26 10:00:00;;;;;;;8.32;1.30;;;23.00;99.90;;;;;;5067457;28;20043;-47
2022/08/26 10:02:31;;;;;;;17.80;1.50;;;23.00;99.90;;;;;;5072651;28;20067;-49
2022/08/26 10:04:59;;;;;;;12.68;1.92;;;23.00;99.90;;;;;;5070885;28;20040;-47
2022/08/26 10:07:49;;;;;;;23.13;2.17;;;23.00;99.90;;;;;;5072120;28;20064;-48
2022/08/26 10:10:30;;;;;;;6.13;1.08;;;23.00;99.90;;;;;;5067677;28;20044;-48
2022/08/26 10:13:07;;;;;;;5.57;0.80;;;23.00;99.90;;;;;;5072138;28;20113;-49
2022/08/26 10:15:53;;;;;;;8.57;1.13;;;23.00;99.90;;;;;;5071823;28;20127;-49
2022/08/26 10:18:23;;;;;;;13.20;1.42;;;22.90;99.90;;;;;;5072125;28;20443;-51
2022/08/26 10:21:19;;;;;;;4.47;0.80;;;22.90;99.90;;;;;;5072107;28;20143;-51
2022/08/26 10:23:52;;;;;;;9.52;1.42;;;23.00;99.90;;;;;;5052325;28;20116;-51
2022/08/26 10:26:36;;;;;;;7.40;1.77;;;23.00;99.90;;;;;;5062263;28;20045;-49
2022/08/26 10:29:15;;;;;;;6.40;0.90;;;22.90;99.90;;;;;;5071604;28;20032;-51
2022/08/26 10:32:09;;;;;;;8.35;0.88;;;22.90;99.90;;;;;;5071671;28;20039;-49
2022/08/26 10:34:34;;;;;;;8.32;1.50;;;22.90;99.90;;;;;;5071827;28;20032;-50
2022/08/26 10:37:01;;;;;;;;;;;22.90;99.90;;;;;;5064488;28;20059;-53
2022/08/26 10:39:33;;;;;;;8.43;1.38;;;22.80;99.90;;;;;;5071518;28;20013;-51
2022/08/26 10:42:03;;;;;;;9.07;2.03;;;22.80;99.90;;;;;;5067167;28;20119;-49
2022/08/26 10:44:33;;;;;;;3.67;1.60;;;22.80;99.90;;;;;;5071221;28;20454;-47
2022/08/26 10:47:08;;;;;;;10.45;1.52;;;22.80;99.90;;;;;;5070876;28;20523;-51
2022/08/26 10:49:34;;;;;;;9.20;1.38;;;22.80;99.90;;;;;;5071712;28;20047;-48
2022/08/26 10:52:31;;;;;;;5.90;0.95;;;22.80;99.90;;;;;;5071211;28;20495;-47
2022/08/26 10:55:19;;;;;;;4.75;0.88;;;22.80;99.90;;;;;;5066807;28;20033;-47
2022/08/26 10:57:52;;;;;;;7.85;1.00;;;22.90;99.90;;;;;;5070382;28;20098;-49
2022/08/26 11:03:45;;;;;;;7.15;1.00;;;23.00;99.90;;;;;;5070848;28;20072;-48
2022/08/26 11:06:17;;;;;;;3.42;0.52;;;23.00;99.90;;;;;;5071113;28;20093;-60
2022/08/26 11:08:48;;;;;;;6.30;1.00;;;23.00;99.90;;;;;;5070499;28;20055;-51
2022/08/26 11:11:40;;;;;;;7.13;1.00;;;23.10;99.90;;;;;;5065240;28;20111;-47
2022/08/26 11:14:18;;;;;;;6.10;1.02;;;23.10;99.90;;;;;;5061943;28;20053;-49
2022/08/26 11:16:47;;;;;;;6.60;1.60;;;23.20;99.90;;;;;;5070121;28;20036;-51
2022/08/26 11:19:37;;;;;;;4.55;0.85;;;23.20;99.90;;;;;;5069171;28;20432;-49
2022/08/26 11:22:08;;;;;;;8.30;0.70;;;23.20;99.90;;;;;;5064777;28;20052;-50
2022/08/26 11:24:51;;;;;;;5.57;1.20;;;23.30;99.90;;;;;;5070450;28;20051;-49
2022/08/26 11:27:23;;;;;;;7.82;1.38;;;23.30;99.90;;;;;;5069668;28;20086;-50
2022/08/26 11:30:00;;;;;;;6.55;0.85;;;23.30;99.90;;;;;;5065659;28;20049;-48
2022/08/26 11:32:46;;;;;;;4.30;1.00;;;23.20;99.90;;;;;;5069897;28;20397;-48
2022/08/26 11:35:18;;;;;;;7.47;1.03;;;23.20;99.90;;;;;;5070458;28;20508;-49
2022/08/26 11:37:49;;;;;;;4.95;0.93;;;23.10;99.90;;;;;;5069812;28;20028;-57
2022/08/26 11:40:19;;;;;;;7.53;0.88;;;23.10;99.90;;;;;;5070806;28;20115;-47
2022/08/26 11:43:17;;;;;;;5.63;1.20;;;23.10;99.90;;;;;;5068470;28;20047;-49
2022/08/26 11:46:07;;;;;;;15.98;2.15;;;23.10;99.90;;;;;;5066145;28;20087;-47
2022/08/26 11:48:37;;;;;;;7.15;0.77;;;23.00;99.90;;;;;;5070437;28;20115;-46
2022/08/26 11:51:05;;;;;;;7.90;1.52;;;22.90;99.90;;;;;;5070728;28;20120;-46
2022/08/26 11:53:33;;;;;;;6.05;1.15;;;22.90;99.90;;;;;;5070117;28;20055;-47
2022/08/26 11:56:04;;;;;;;4.80;1.38;;;22.90;99.90;;;;;;5070737;28;20127;-47
2022/08/26 11:58:30;;;;;;;6.90;1.60;;;22.90;99.90;;;;;;5069842;28;20048;-47
2022/08/26 12:01:02;;;;;;;10.00;1.98;;;22.90;99.90;;;;;;5070763;28;20036;-47
2022/08/26 12:03:49;;;;;;;3.63;1.33;;;22.90;99.90;;;;;;5069838;28;20440;-48
2022/08/26 12:06:28;;;;;;;7.65;1.50;;;22.90;99.90;;;;;;5070425;28;20076;-47
2022/08/26 12:09:01;;;;;;;8.38;1.05;;;22.90;99.90;;;;;;5069600;28;20051;-47
2022/08/26 12:11:29;;;;;;;8.38;1.83;;;22.90;99.90;;;;;;5070597;28;20071;-47
2022/08/26 12:14:01;;;;;;;4.50;0.88;;;22.90;99.90;;;;;;5065944;28;20123;-46
2022/08/26 12:16:29;;;;;;;7.68;1.23;;;22.90;99.90;;;;;;5050158;28;20043;-49
2022/08/26 12:18:55;;;;;;;5.88;1.95;;;23.00;99.90;;;;;;5064025;28;20037;-48
2022/08/26 12:21:24;;;;;;;8.73;0.98;;;23.00;99.90;;;;;;5069979;28;20051;-46
2022/08/26 12:23:53;;;;;;;14.25;1.30;;;23.00;99.90;;;;;;5069711;28;20036;-48
2022/08/26 12:26:27;;;;;;;8.57;1.70;;;23.10;99.90;;;;;;5070184;28;20039;-48
2022/08/26 12:29:19;;;;;;;6.80;1.38;;;23.10;99.90;;;;;;5069801;28;20037;-51
2022/08/26 12:31:45;;;;;;;6.13;1.27;;;23.10;99.90;;;;;;5069813;28;20047;-47
2022/08/26 12:34:15;;;;;;;;;;;23.00;99.80;;;;;;5069870;28;20040;-49
2022/08/26 12:36:55;;;;;;;10.32;1.73;;;22.90;99.90;;;;;;5069993;28;19920;-47
2022/08/26 12:39:28;;;;;;;12.57;2.00;;;22.90;99.90;;;;;;5069724;28;20040;-46
2022/08/26 12:42:04;;;;;;;10.82;1.00;;;22.80;99.90;;;;;;5069902;28;20116;-46
2022/08/26 12:44:57;;;;;;;5.70;0.73;;;22.80;99.90;;;;;;5064411;28;20046;-47
2022/08/26 12:47:30;;;;;;;8.38;1.75;;;22.70;99.90;;;;;;5049778;28;20064;-46
2022/08/26 12:50:10;;;;;;;9.63;1.73;;;22.70;99.90;;;;;;5049902;28;20288;-46
2022/08/26 12:52:50;;;;;;;8.18;0.98;;;22.60;99.90;;;;;;5069273;28;20040;-46
2022/08/26 12:55:34;;;;;;;11.07;1.02;;;22.60;99.90;;;;;;5069677;28;20072;-51
2022/08/26 12:58:23;;;;;;;7.68;1.45;;;22.60;99.90;;;;;;5069615;28;20044;-48
2022/08/26 13:01:07;;;;;;;13.05;1.52;;;22.60;99.90;;;;;;5065051;28;20399;-46
2022/08/26 13:03:32;;;;;;;6.47;1.15;;;22.60;99.90;;;;;;5069094;28;20120;-46
2022/08/26 13:06:16;;;;;;;;;;;22.70;99.90;;;;;;5070258;28;20130;-46
2022/08/26 13:09:07;;;;;;;11.88;1.17;;;22.70;99.90;;;;;;5069114;28;20431;-46
2022/08/26 13:11:40;;;;;;;6.82;1.13;;;22.80;99.90;;;;;;5041728;28;20049;-45
2022/08/26 13:14:07;;;;;;;6.63;0.93;;;22.80;99.90;;;;;;5068905;28;20127;-46
2022/08/26 13:16:34;;;;;;;7.32;0.98;;;22.80;99.90;;;;;;5069502;28;20037;-46
2022/08/26 13:19:04;;;;;;;4.18;0.60;;;22.80;99.90;;;;;;5068875;28;20498;-48